sensor_id;sensor_type;location;lat;lon;timestamp;pressure;altitude;pressure_sealevel;temperature;humidity
33506;BME280;19843;51.040;13.782;2023-08-12T00:00:36;100741.72;;;18.49;89.12
33506;BME280;19843;51.040;13.782;2023-08-12T00:03:04;100746.44;;;18.41;89.67
33506;BME280;19843;51.040;13.782;2023-08-12T00:05:32;100744.66;;;18.26;90.63
33506;BME280;19843;51.040;13.782;2023-08-12T00:08:02;100740.84;;;18.11;91.78
33506;BME280;19843;51.040;13.782;2023-08-12T00:10:29;100741.06;;;17.99;91.79
33506;BME280;19843;51.040;13.782;2023-08-12T00:12:57;100747.53;;;17.99;92.09
33506;BME280;19843;51.040;13.782;2023-08-12T00:15:25;100739.97;;;17.77;94.78
33506;BME280;19843;51.040;13.782;2023-08-12T00:17:54;100742.75;;;17.73;95.50
33506;BME280;19843;51.040;13.782;2023-08-12T00:20:22;100747.03;;;17.90;93.99
33506;BME280;19843;51.040;13.782;2023-08-12T00:22:50;100739.25;;;17.83;94.81
33506;BME280;19843;51.040;13.782;2023-08-12T00:25:18;100738.94;;;17.88;93.86
33506;BME280;19843;51.040;13.782;2023-08-12T00:27:46;100733.94;;;17.78;93.69
33506;BME280;19843;51.040;13.782;2023-08-12T00:30:14;100745.78;;;17.87;93.81
33506;BME280;19843;51.040;13.782;2023-08-12T00:32:42;100742.19;;;17.64;95.11
33506;BME280;19843;51.040;13.782;2023-08-12T00:35:11;100745.28;;;17.82;94.72
33506;BME280;19843;51.040;13.782;2023-08-12T00:37:38;100740.88;;;17.84;93.71
33506;BME280;19843;51.040;13.782;2023-08-12T00:40:07;100733.59;;;17.83;94.07
33506;BME280;19843;51.040;13.782;2023-08-12T00:42:35;100738.84;;;17.81;94.24
33506;BME280;19843;51.040;13.782;2023-08-12T00:45:02;100730.88;;;17.64;94.95
33506;BME280;19843;51.040;13.782;2023-08-12T00:47:30;100723.78;;;17.74;95.11
33506;BME280;19843;51.040;13.782;2023-08-12T00:49:58;100728.25;;;17.75;94.82
33506;BME280;19843;51.040;13.782;2023-08-12T00:52:27;100719.31;;;17.73;95.18
33506;BME280;19843;51.040;13.782;2023-08-12T00:54:55;100723.22;;;17.64;95.98
33506;BME280;19843;51.040;13.782;2023-08-12T00:57:22;100731.47;;;17.24;97.62
33506;BME280;19843;51.040;13.782;2023-08-12T00:59:50;100724.88;;;17.39;98.13
33506;BME280;19843;51.040;13.782;2023-08-12T01:02:17;100733.47;;;17.23;98.45
33506;BME280;19843;51.040;13.782;2023-08-12T01:04:45;100721.91;;;17.32;98.37
33506;BME280;19843;51.040;13.782;2023-08-12T01:07:13;100719.91;;;17.32;98.49
33506;BME280;19843;51.040;13.782;2023-08-12T01:09:42;100719.91;;;17.32;98.40
33506;BME280;19843;51.040;13.782;2023-08-12T01:12:14;100726.81;;;17.35;97.55
33506;BME280;19843;51.040;13.782;2023-08-12T01:14:46;100726.19;;;17.22;97.95
33506;BME280;19843;51.040;13.782;2023-08-12T01:17:17;100720.69;;;17.29;96.91
33506;BME280;19843;51.040;13.782;2023-08-12T01:19:46;100722.47;;;17.41;96.87
33506;BME280;19843;51.040;13.782;2023-08-12T01:22:16;100720.78;;;17.36;97.65
33506;BME280;19843;51.040;13.782;2023-08-12T01:24:46;100719.22;;;17.39;97.17
33506;BME280;19843;51.040;13.782;2023-08-12T01:27:13;100722.69;;;17.29;97.33
33506;BME280;19843;51.040;13.782;2023-08-12T01:29:43;100724.09;;;17.42;97.08
33506;BME280;19843;51.040;13.782;2023-08-12T01:32:14;100725.75;;;17.43;95.94
33506;BME280;19843;51.040;13.782;2023-08-12T01:34:47;100717.63;;;17.41;95.78
33506;BME280;19843;51.040;13.782;2023-08-12T01:37:21;100721.28;;;17.42;96.32
33506;BME280;19843;51.040;13.782;2023-08-12T01:39:52;100716.88;;;17.45;95.87
33506;BME280;19843;51.040;13.782;2023-08-12T01:42:21;100716.94;;;17.48;96.37
33506;BME280;19843;51.040;13.782;2023-08-12T01:44:49;100708.38;;;17.41;96.21
33506;BME280;19843;51.040;13.782;2023-08-12T01:47:17;100709.56;;;17.40;95.83
33506;BME280;19843;51.040;13.782;2023-08-12T01:49:45;100713.47;;;17.32;96.71
33506;BME280;19843;51.040;13.782;2023-08-12T01:52:12;100705.59;;;17.45;95.79
33506;BME280;19843;51.040;13.782;2023-08-12T01:54:40;100700.44;;;17.50;95.72
33506;BME280;19843;51.040;13.782;2023-08-12T01:57:09;100694.09;;;17.57;95.06
33506;BME280;19843;51.040;13.782;2023-08-12T01:59:37;100695.78;;;17.61;95.14
33506;BME280;19843;51.040;13.782;2023-08-12T02:02:05;100692.50;;;17.59;93.66
33506;BME280;19843;51.040;13.782;2023-08-12T02:04:33;100695.38;;;17.63;94.60
33506;BME280;19843;51.040;13.782;2023-08-12T02:07:03;100695.78;;;17.61;94.70
33506;BME280;19843;51.040;13.782;2023-08-12T02:09:30;100697.41;;;17.62;94.44
33506;BME280;19843;51.040;13.782;2023-08-12T02:11:58;100692.41;;;17.52;95.32
33506;BME280;19843;51.040;13.782;2023-08-12T02:14:27;100697.34;;;17.59;94.18
33506;BME280;19843;51.040;13.782;2023-08-12T02:16:55;100688.88;;;17.59;93.21
33506;BME280;19843;51.040;13.782;2023-08-12T02:19:22;100681.97;;;17.56;93.82
33506;BME280;19843;51.040;13.782;2023-08-12T02:21:50;100679.72;;;17.39;94.99
33506;BME280;19843;51.040;13.782;2023-08-12T02:24:17;100672.13;;;17.43;94.43
33506;BME280;19843;51.040;13.782;2023-08-12T02:26:45;100666.41;;;17.39;95.21
33506;BME280;19843;51.040;13.782;2023-08-12T02:29:12;100668.84;;;17.41;94.49
33506;BME280;19843;51.040;13.782;2023-08-12T02:31:41;100670.59;;;17.49;94.80
33506;BME280;19843;51.040;13.782;2023-08-12T02:34:09;100670.66;;;17.26;95.33
33506;BME280;19843;51.040;13.782;2023-08-12T02:36:36;100661.28;;;17.19;95.27
33506;BME280;19843;51.040;13.782;2023-08-12T02:39:04;100656.69;;;17.37;94.43
33506;BME280;19843;51.040;13.782;2023-08-12T02:41:32;100659.97;;;17.39;93.99
33506;BME280;19843;51.040;13.782;2023-08-12T02:43:59;100654.69;;;17.37;93.82
33506;BME280;19843;51.040;13.782;2023-08-12T02:46:27;100655.25;;;17.20;94.81
33506;BME280;19843;51.040;13.782;2023-08-12T02:48:55;100650.59;;;17.05;95.35
33506;BME280;19843;51.040;13.782;2023-08-12T02:51:23;100651.72;;;17.27;93.39
33506;BME280;19843;51.040;13.782;2023-08-12T02:53:51;100655.50;;;17.11;94.33
33506;BME280;19843;51.040;13.782;2023-08-12T02:56:18;100650.16;;;17.29;93.43
33506;BME280;19843;51.040;13.782;2023-08-12T02:58:46;100652.28;;;17.09;95.17
33506;BME280;19843;51.040;13.782;2023-08-12T03:01:14;100649.94;;;17.15;94.76
33506;BME280;19843;51.040;13.782;2023-08-12T03:03:42;100646.19;;;17.07;94.87
33506;BME280;19843;51.040;13.782;2023-08-12T03:06:11;100641.09;;;17.17;93.82
33506;BME280;19843;51.040;13.782;2023-08-12T03:08:38;100647.06;;;17.11;94.41
33506;BME280;19843;51.040;13.782;2023-08-12T03:11:06;100652.16;;;17.02;95.48
33506;BME280;19843;51.040;13.782;2023-08-12T03:13:33;100656.16;;;17.01;95.56
33506;BME280;19843;51.040;13.782;2023-08-12T03:16:01;100645.44;;;17.10;95.01
33506;BME280;19843;51.040;13.782;2023-08-12T03:18:28;100658.66;;;17.06;94.78
33506;BME280;19843;51.040;13.782;2023-08-12T03:20:56;100654.00;;;16.91;96.45
33506;BME280;19843;51.040;13.782;2023-08-12T03:23:25;100653.94;;;16.87;97.06
33506;BME280;19843;51.040;13.782;2023-08-12T03:25:52;100665.00;;;17.00;95.53
33506;BME280;19843;51.040;13.782;2023-08-12T03:28:20;100655.94;;;17.13;94.42
33506;BME280;19843;51.040;13.782;2023-08-12T03:30:51;100649.44;;;17.09;94.38
33506;BME280;19843;51.040;13.782;2023-08-12T03:33:18;100651.28;;;16.98;95.80
33506;BME280;19843;51.040;13.782;2023-08-12T03:35:46;100647.88;;;17.12;94.18
33506;BME280;19843;51.040;13.782;2023-08-12T03:38:14;100649.94;;;17.15;93.65
33506;BME280;19843;51.040;13.782;2023-08-12T03:40:44;100643.56;;;17.22;93.05
33506;BME280;19843;51.040;13.782;2023-08-12T03:43:11;100648.94;;;17.04;94.31
33506;BME280;19843;51.040;13.782;2023-08-12T03:45:42;100645.09;;;17.15;93.12
33506;BME280;19843;51.040;13.782;2023-08-12T03:48:10;100633.81;;;17.15;93.60
33506;BME280;19843;51.040;13.782;2023-08-12T03:50:39;100639.13;;;17.21;93.53
33506;BME280;19843;51.040;13.782;2023-08-12T03:53:06;100636.72;;;17.23;92.79
33506;BME280;19843;51.040;13.782;2023-08-12T03:55:35;100629.59;;;17.29;91.58
33506;BME280;19843;51.040;13.782;2023-08-12T03:58:04;100640.38;;;17.23;91.85
33506;BME280;19843;51.040;13.782;2023-08-12T04:00:32;100636.69;;;17.19;92.14
33506;BME280;19843;51.040;13.782;2023-08-12T04:02:59;100639.69;;;17.30;93.07
33506;BME280;19843;51.040;13.782;2023-08-12T04:05:27;100630.34;;;17.26;92.50
33506;BME280;19843;51.040;13.782;2023-08-12T04:07:55;100631.69;;;17.35;91.94
33506;BME280;19843;51.040;13.782;2023-08-12T04:10:22;100635.09;;;17.48;90.34
33506;BME280;19843;51.040;13.782;2023-08-12T04:12:50;100632.31;;;17.52;89.91
33506;BME280;19843;51.040;13.782;2023-08-12T04:15:19;100630.41;;;17.59;88.91
33506;BME280;19843;51.040;13.782;2023-08-12T04:17:47;100624.75;;;17.59;89.46
33506;BME280;19843;51.040;13.782;2023-08-12T04:20:14;100623.03;;;17.51;89.30
33506;BME280;19843;51.040;13.782;2023-08-12T04:22:42;100627.91;;;17.54;88.93
33506;BME280;19843;51.040;13.782;2023-08-12T04:25:13;100631.28;;;17.63;88.74
33506;BME280;19843;51.040;13.782;2023-08-12T04:27:40;100624.16;;;17.73;86.97
33506;BME280;19843;51.040;13.782;2023-08-12T04:30:08;100624.34;;;17.87;86.44
33506;BME280;19843;51.040;13.782;2023-08-12T04:32:37;100626.53;;;18.01;85.65
33506;BME280;19843;51.040;13.782;2023-08-12T04:35:06;100626.88;;;17.96;84.86
33506;BME280;19843;51.040;13.782;2023-08-12T04:37:35;100622.59;;;18.09;85.17
33506;BME280;19843;51.040;13.782;2023-08-12T04:40:03;100617.00;;;18.16;84.20
33506;BME280;19843;51.040;13.782;2023-08-12T04:42:31;100624.81;;;18.30;83.24
33506;BME280;19843;51.040;13.782;2023-08-12T04:44:59;100623.84;;;18.53;82.27
33506;BME280;19843;51.040;13.782;2023-08-12T04:47:26;100629.16;;;18.61;81.33
33506;BME280;19843;51.040;13.782;2023-08-12T04:49:56;100627.59;;;18.67;80.59
33506;BME280;19843;51.040;13.782;2023-08-12T04:52:25;100622.63;;;18.54;81.81
33506;BME280;19843;51.040;13.782;2023-08-12T04:54:53;100612.72;;;18.71;81.83
33506;BME280;19843;51.040;13.782;2023-08-12T04:57:20;100616.03;;;18.83;80.11
33506;BME280;19843;51.040;13.782;2023-08-12T04:59:48;100611.50;;;18.75;79.93
33506;BME280;19843;51.040;13.782;2023-08-12T05:02:15;100613.75;;;19.00;79.72
33506;BME280;19843;51.040;13.782;2023-08-12T05:04:47;100611.22;;;18.87;79.72
33506;BME280;19843;51.040;13.782;2023-08-12T05:07:16;100607.69;;;19.01;78.70
33506;BME280;19843;51.040;13.782;2023-08-12T05:09:44;100605.00;;;19.19;78.28
33506;BME280;19843;51.040;13.782;2023-08-12T05:12:12;100600.44;;;19.07;78.55
33506;BME280;19843;51.040;13.782;2023-08-12T05:14:39;100601.72;;;19.17;78.28
33506;BME280;19843;51.040;13.782;2023-08-12T05:17:07;100610.25;;;19.21;78.32
33506;BME280;19843;51.040;13.782;2023-08-12T05:19:35;100602.56;;;19.21;78.49
33506;BME280;19843;51.040;13.782;2023-08-12T05:22:03;100599.13;;;19.56;76.60
33506;BME280;19843;51.040;13.782;2023-08-12T05:24:32;100610.81;;;19.51;76.23
33506;BME280;19843;51.040;13.782;2023-08-12T05:27:00;100612.63;;;19.81;74.76
33506;BME280;19843;51.040;13.782;2023-08-12T05:29:27;100611.47;;;20.07;74.37
33506;BME280;19843;51.040;13.782;2023-08-12T05:31:55;100603.44;;;20.41;73.07
33506;BME280;19843;51.040;13.782;2023-08-12T05:34:22;100597.78;;;20.34;72.54
33506;BME280;19843;51.040;13.782;2023-08-12T05:36:50;100604.28;;;20.91;70.73
33506;BME280;19843;51.040;13.782;2023-08-12T05:39:17;100601.06;;;20.89;70.58
33506;BME280;19843;51.040;13.782;2023-08-12T05:41:46;100609.53;;;21.11;69.58
33506;BME280;19843;51.040;13.782;2023-08-12T05:44:14;100596.16;;;21.33;68.15
33506;BME280;19843;51.040;13.782;2023-08-12T05:46:42;100598.16;;;21.36;67.32
33506;BME280;19843;51.040;13.782;2023-08-12T05:49:09;100596.13;;;21.40;67.49
33506;BME280;19843;51.040;13.782;2023-08-12T05:51:37;100601.03;;;21.32;67.54
33506;BME280;19843;51.040;13.782;2023-08-12T05:54:05;100600.59;;;21.37;67.19
33506;BME280;19843;51.040;13.782;2023-08-12T05:56:32;100596.50;;;21.53;67.00
33506;BME280;19843;51.040;13.782;2023-08-12T05:59:01;100597.69;;;21.62;66.33
33506;BME280;19843;51.040;13.782;2023-08-12T06:01:29;100601.31;;;21.70;66.62
33506;BME280;19843;51.040;13.782;2023-08-12T06:03:56;100599.47;;;22.19;64.89
33506;BME280;19843;51.040;13.782;2023-08-12T06:06:24;100594.59;;;22.12;64.00
33506;BME280;19843;51.040;13.782;2023-08-12T06:08:51;100598.06;;;21.68;65.26
33506;BME280;19843;51.040;13.782;2023-08-12T06:11:19;100592.66;;;21.98;64.49
33506;BME280;19843;51.040;13.782;2023-08-12T06:13:47;100588.91;;;22.12;64.64
33506;BME280;19843;51.040;13.782;2023-08-12T06:16:16;100586.91;;;22.09;65.20
33506;BME280;19843;51.040;13.782;2023-08-12T06:18:43;100581.59;;;22.22;64.16
33506;BME280;19843;51.040;13.782;2023-08-12T06:21:11;100578.84;;;22.60;62.88
33506;BME280;19843;51.040;13.782;2023-08-12T06:23:38;100585.63;;;22.77;62.49
33506;BME280;19843;51.040;13.782;2023-08-12T06:26:06;100576.03;;;22.56;62.76
33506;BME280;19843;51.040;13.782;2023-08-12T06:28:33;100578.00;;;22.63;61.65
33506;BME280;19843;51.040;13.782;2023-08-12T06:31:01;100571.66;;;22.93;61.28
33506;BME280;19843;51.040;13.782;2023-08-12T06:33:30;100571.16;;;23.02;60.71
33506;BME280;19843;51.040;13.782;2023-08-12T06:35:58;100576.78;;;23.12;60.66
33506;BME280;19843;51.040;13.782;2023-08-12T06:38:25;100579.63;;;23.50;59.46
33506;BME280;19843;51.040;13.782;2023-08-12T06:40:54;100570.50;;;23.62;58.80
33506;BME280;19843;51.040;13.782;2023-08-12T06:43:21;100575.47;;;23.55;58.50
33506;BME280;19843;51.040;13.782;2023-08-12T06:45:49;100576.66;;;23.23;59.83
33506;BME280;19843;51.040;13.782;2023-08-12T06:48:17;100578.53;;;23.37;59.49
33506;BME280;19843;51.040;13.782;2023-08-12T06:50:45;100562.47;;;23.16;59.80
33506;BME280;19843;51.040;13.782;2023-08-12T06:53:13;100566.69;;;23.04;61.04
33506;BME280;19843;51.040;13.782;2023-08-12T06:55:43;100576.03;;;22.56;62.07
33506;BME280;19843;51.040;13.782;2023-08-12T06:58:12;100565.13;;;22.47;62.46
33506;BME280;19843;51.040;13.782;2023-08-12T07:00:40;100572.72;;;22.65;62.90
33506;BME280;19843;51.040;13.782;2023-08-12T07:03:07;100567.16;;;23.37;61.08
33506;BME280;19843;51.040;13.782;2023-08-12T07:05:35;100571.66;;;23.68;59.85
33506;BME280;19843;51.040;13.782;2023-08-12T07:08:05;100558.50;;;23.78;59.56
33506;BME280;19843;51.040;13.782;2023-08-12T07:10:32;100560.63;;;24.01;60.97
33506;BME280;19843;51.040;13.782;2023-08-12T07:13:00;100568.44;;;23.97;59.97
33506;BME280;19843;51.040;13.782;2023-08-12T07:15:28;100572.53;;;23.96;59.71
33506;BME280;19843;51.040;13.782;2023-08-12T07:17:55;100563.03;;;23.75;60.58
33506;BME280;19843;51.040;13.782;2023-08-12T07:20:24;100557.91;;;23.94;60.62
33506;BME280;19843;51.040;13.782;2023-08-12T07:22:51;100558.75;;;23.91;60.66
33506;BME280;19843;51.040;13.782;2023-08-12T07:25:20;100559.84;;;24.27;59.70
33506;BME280;19843;51.040;13.782;2023-08-12T07:27:48;100557.47;;;24.73;59.76
33506;BME280;19843;51.040;13.782;2023-08-12T07:30:15;100554.44;;;24.37;58.74
33506;BME280;19843;51.040;13.782;2023-08-12T07:32:43;100571.28;;;24.55;58.70
33506;BME280;19843;51.040;13.782;2023-08-12T07:35:10;100555.47;;;24.19;59.45
33506;BME280;19843;51.040;13.782;2023-08-12T07:37:38;100556.50;;;24.60;58.67
33506;BME280;19843;51.040;13.782;2023-08-12T07:40:07;100545.03;;;25.07;58.34
33506;BME280;19843;51.040;13.782;2023-08-12T07:42:36;100548.53;;;25.18;57.39
33506;BME280;19843;51.040;13.782;2023-08-12T07:45:05;100544.22;;;25.10;57.48
33506;BME280;19843;51.040;13.782;2023-08-12T07:47:33;100550.97;;;25.39;56.66
33506;BME280;19843;51.040;13.782;2023-08-12T07:50:01;100542.84;;;25.58;56.95
33506;BME280;19843;51.040;13.782;2023-08-12T07:52:29;100547.88;;;25.70;55.72
33506;BME280;19843;51.040;13.782;2023-08-12T07:54:56;100547.22;;;26.02;55.38
33506;BME280;19843;51.040;13.782;2023-08-12T07:57:24;100534.03;;;26.73;54.79
33506;BME280;19843;51.040;13.782;2023-08-12T07:59:53;100537.97;;;26.79;53.85
33506;BME280;19843;51.040;13.782;2023-08-12T08:02:20;100526.25;;;26.74;53.11
33506;BME280;19843;51.040;13.782;2023-08-12T08:04:48;100536.59;;;27.17;52.52
33506;BME280;19843;51.040;13.782;2023-08-12T08:07:16;100527.25;;;27.42;51.39
33506;BME280;19843;51.040;13.782;2023-08-12T08:09:43;100530.25;;;27.80;51.06
33506;BME280;19843;51.040;13.782;2023-08-12T08:12:11;100522.81;;;27.53;53.17
33506;BME280;19843;51.040;13.782;2023-08-12T08:14:39;100507.63;;;27.69;51.54
33506;BME280;19843;51.040;13.782;2023-08-12T08:17:08;100511.66;;;28.10;51.10
33506;BME280;19843;51.040;13.782;2023-08-12T08:19:36;100512.50;;;28.11;51.20
33506;BME280;19843;51.040;13.782;2023-08-12T08:22:04;100511.34;;;28.08;50.62
33506;BME280;19843;51.040;13.782;2023-08-12T08:24:31;100505.25;;;28.19;50.33
33506;BME280;19843;51.040;13.782;2023-08-12T08:26:59;100505.16;;;27.97;50.74
33506;BME280;19843;51.040;13.782;2023-08-12T08:29:27;100504.22;;;27.87;50.37
33506;BME280;19843;51.040;13.782;2023-08-12T08:31:54;100511.75;;;27.68;50.97
33506;BME280;19843;51.040;13.782;2023-08-12T08:34:25;100507.78;;;28.17;50.01
33506;BME280;19843;51.040;13.782;2023-08-12T08:36:52;100508.22;;;28.15;50.02
33506;BME280;19843;51.040;13.782;2023-08-12T08:39:20;100507.09;;;28.38;49.52
33506;BME280;19843;51.040;13.782;2023-08-12T08:41:48;100513.41;;;28.20;49.65
33506;BME280;19843;51.040;13.782;2023-08-12T08:44:17;100509.94;;;28.51;49.44
33506;BME280;19843;51.040;13.782;2023-08-12T08:46:49;100510.81;;;28.73;49.09
33506;BME280;19843;51.040;13.782;2023-08-12T08:49:17;100498.97;;;28.71;48.47
33506;BME280;19843;51.040;13.782;2023-08-12T08:51:47;100503.63;;;28.43;48.77
33506;BME280;19843;51.040;13.782;2023-08-12T08:54:15;100501.16;;;28.67;48.56
33506;BME280;19843;51.040;13.782;2023-08-12T08:56:43;100496.69;;;29.36;48.46
33506;BME280;19843;51.040;13.782;2023-08-12T08:59:13;100504.97;;;29.33;47.86
33506;BME280;19843;51.040;13.782;2023-08-12T09:01:41;100505.78;;;29.78;48.32
33506;BME280;19843;51.040;13.782;2023-08-12T09:04:11;100497.06;;;29.03;47.83
33506;BME280;19843;51.040;13.782;2023-08-12T09:06:39;100507.47;;;29.97;45.68
33506;BME280;19843;51.040;13.782;2023-08-12T09:09:11;100492.94;;;29.70;47.00
33506;BME280;19843;51.040;13.782;2023-08-12T09:11:40;100503.25;;;29.89;46.58
33506;BME280;19843;51.040;13.782;2023-08-12T09:14:07;100487.66;;;29.68;46.89
33506;BME280;19843;51.040;13.782;2023-08-12T09:16:35;100487.31;;;29.66;46.37
33506;BME280;19843;51.040;13.782;2023-08-12T09:19:03;100486.88;;;30.57;45.79
33506;BME280;19843;51.040;13.782;2023-08-12T09:21:31;100489.13;;;30.53;46.23
33506;BME280;19843;51.040;13.782;2023-08-12T09:24:02;100469.97;;;31.15;43.75
33506;BME280;19843;51.040;13.782;2023-08-12T09:26:31;100463.38;;;31.14;43.07
33506;BME280;19843;51.040;13.782;2023-08-12T09:28:59;100463.84;;;30.67;43.33
33506;BME280;19843;51.040;13.782;2023-08-12T09:31:28;100467.25;;;31.02;41.54
33506;BME280;19843;51.040;13.782;2023-08-12T09:33:58;100458.25;;;31.18;41.02
33506;BME280;19843;51.040;13.782;2023-08-12T09:36:27;100453.50;;;31.06;41.30
33506;BME280;19843;51.040;13.782;2023-08-12T09:38:56;100447.16;;;31.63;40.47
33506;BME280;19843;51.040;13.782;2023-08-12T09:41:24;100441.38;;;32.62;40.23
33506;BME280;19843;51.040;13.782;2023-08-12T09:43:53;100435.75;;;32.82;38.75
33506;BME280;19843;51.040;13.782;2023-08-12T09:46:22;100438.00;;;33.02;38.76
33506;BME280;19843;51.040;13.782;2023-08-12T09:48:53;100432.75;;;33.16;38.11
33506;BME280;19843;51.040;13.782;2023-08-12T09:51:21;100441.47;;;32.20;39.71
33506;BME280;19843;51.040;13.782;2023-08-12T09:53:49;100442.41;;;32.26;37.35
33506;BME280;19843;51.040;13.782;2023-08-12T09:56:22;100435.94;;;32.79;35.23
33506;BME280;19843;51.040;13.782;2023-08-12T09:58:50;100427.16;;;32.97;34.32
33506;BME280;19843;51.040;13.782;2023-08-12T10:01:21;100440.16;;;32.54;34.68
33506;BME280;19843;51.040;13.782;2023-08-12T10:03:50;100436.38;;;31.72;34.77
33506;BME280;19843;51.040;13.782;2023-08-12T10:06:21;100435.75;;;32.10;34.24
33506;BME280;19843;51.040;13.782;2023-08-12T10:08:49;100430.09;;;32.16;35.03
33506;BME280;19843;51.040;13.782;2023-08-12T10:11:18;100431.81;;;31.90;34.58
33506;BME280;19843;51.040;13.782;2023-08-12T10:13:46;100426.13;;;32.37;34.63
33506;BME280;19843;51.040;13.782;2023-08-12T10:16:14;100436.19;;;31.76;35.34
33506;BME280;19843;51.040;13.782;2023-08-12T10:18:46;100428.69;;;32.11;35.64
33506;BME280;19843;51.040;13.782;2023-08-12T10:21:13;100416.91;;;32.24;34.92
33506;BME280;19843;51.040;13.782;2023-08-12T10:23:42;100426.25;;;32.19;36.68
33506;BME280;19843;51.040;13.782;2023-08-12T10:26:14;100411.38;;;32.35;36.10
33506;BME280;19843;51.040;13.782;2023-08-12T10:28:42;100423.50;;;32.49;35.29
33506;BME280;19843;51.040;13.782;2023-08-12T10:31:12;100412.44;;;32.14;36.23
33506;BME280;19843;51.040;13.782;2023-08-12T10:33:41;100418.47;;;32.01;36.43
33506;BME280;19843;51.040;13.782;2023-08-12T10:36:10;100418.91;;;32.09;36.22
33506;BME280;19843;51.040;13.782;2023-08-12T10:38:37;100417.25;;;32.17;36.41
33506;BME280;19843;51.040;13.782;2023-08-12T10:41:15;100412.78;;;31.31;37.45
33506;BME280;19843;51.040;13.782;2023-08-12T10:43:52;100412.88;;;31.55;38.55
33506;BME280;19843;51.040;13.782;2023-08-12T10:46:38;100411.41;;;31.60;37.32
33506;BME280;19843;51.040;13.782;2023-08-12T10:49:07;100424.66;;;31.06;40.42
33506;BME280;19843;51.040;13.782;2023-08-12T10:51:44;100416.16;;;31.21;38.76
33506;BME280;19843;51.040;13.782;2023-08-12T10:54:16;100409.09;;;31.31;38.77
33506;BME280;19843;51.040;13.782;2023-08-12T10:57:06;100401.88;;;31.35;38.49
33506;BME280;19843;51.040;13.782;2023-08-12T10:59:53;100398.75;;;30.88;39.15
33506;BME280;19843;51.040;13.782;2023-08-12T11:02:26;100399.03;;;30.99;39.23
33506;BME280;19843;51.040;13.782;2023-08-12T11:04:55;100396.81;;;30.94;38.81
33506;BME280;19843;51.040;13.782;2023-08-12T11:07:32;100392.63;;;31.04;38.94
33506;BME280;19843;51.040;13.782;2023-08-12T11:10:04;100394.41;;;31.10;38.96
33506;BME280;19843;51.040;13.782;2023-08-12T11:12:34;100395.63;;;31.19;38.59
33506;BME280;19843;51.040;13.782;2023-08-12T11:15:03;100402.84;;;31.14;39.58
33506;BME280;19843;51.040;13.782;2023-08-12T11:17:35;100388.31;;;30.99;38.02
33506;BME280;19843;51.040;13.782;2023-08-12T11:20:06;100395.84;;;30.69;38.50
33506;BME280;19843;51.040;13.782;2023-08-12T11:22:39;100396.59;;;30.24;40.56
33506;BME280;19843;51.040;13.782;2023-08-12T11:25:09;100391.91;;;31.46;38.01
33506;BME280;19843;51.040;13.782;2023-08-12T11:27:39;100393.03;;;31.48;38.73
33506;BME280;19843;51.040;13.782;2023-08-12T11:30:07;100398.53;;;31.70;38.10
33506;BME280;19843;51.040;13.782;2023-08-12T11:32:37;100388.16;;;31.64;37.54
33506;BME280;19843;51.040;13.782;2023-08-12T11:35:06;100394.81;;;31.79;38.17
33506;BME280;19843;51.040;13.782;2023-08-12T11:37:36;100389.56;;;31.77;38.13
33506;BME280;19843;51.040;13.782;2023-08-12T11:40:06;100385.25;;;32.06;39.12
33506;BME280;19843;51.040;13.782;2023-08-12T11:42:38;100386.16;;;32.12;37.82
33506;BME280;19843;51.040;13.782;2023-08-12T11:45:07;100378.88;;;30.90;40.16
33506;BME280;19843;51.040;13.782;2023-08-12T11:47:38;100374.41;;;31.58;39.73
33506;BME280;19843;51.040;13.782;2023-08-12T11:50:07;100372.84;;;31.48;40.32
33506;BME280;19843;51.040;13.782;2023-08-12T11:52:37;100375.31;;;31.13;40.03
33506;BME280;19843;51.040;13.782;2023-08-12T11:55:06;100376.25;;;31.28;39.67
33506;BME280;19843;51.040;13.782;2023-08-12T11:57:34;100369.03;;;31.24;40.35
33506;BME280;19843;51.040;13.782;2023-08-12T12:00:04;100368.56;;;31.34;38.57
33506;BME280;19843;51.040;13.782;2023-08-12T12:02:41;100365.84;;;31.31;38.94
33506;BME280;19843;51.040;13.782;2023-08-12T12:05:11;100380.44;;;31.09;39.32
33506;BME280;19843;51.040;13.782;2023-08-12T12:07:40;100375.03;;;31.63;37.97
33506;BME280;19843;51.040;13.782;2023-08-12T12:10:12;100366.94;;;32.33;36.29
33506;BME280;19843;51.040;13.782;2023-08-12T12:12:41;100364.94;;;33.17;35.79
33506;BME280;19843;51.040;13.782;2023-08-12T12:15:09;100366.63;;;33.23;35.09
33506;BME280;19843;51.040;13.782;2023-08-12T12:17:38;100370.91;;;32.98;35.46
33506;BME280;19843;51.040;13.782;2023-08-12T12:20:09;100364.84;;;32.57;36.52
33506;BME280;19843;51.040;13.782;2023-08-12T12:22:41;100368.16;;;32.80;36.50
33506;BME280;19843;51.040;13.782;2023-08-12T12:25:11;100357.66;;;33.06;36.13
33506;BME280;19843;51.040;13.782;2023-08-12T12:27:41;100374.41;;;33.17;36.09
33506;BME280;19843;51.040;13.782;2023-08-12T12:30:12;100370.53;;;33.05;35.95
33506;BME280;19843;51.040;13.782;2023-08-12T12:32:42;100370.41;;;32.61;37.35
33506;BME280;19843;51.040;13.782;2023-08-12T12:35:13;100366.75;;;31.89;37.65
33506;BME280;19843;51.040;13.782;2023-08-12T12:37:42;100359.44;;;32.50;36.96
33506;BME280;19843;51.040;13.782;2023-08-12T12:40:11;100357.81;;;32.10;37.76
33506;BME280;19843;51.040;13.782;2023-08-12T12:42:38;100355.59;;;32.05;39.09
33506;BME280;19843;51.040;13.782;2023-08-12T12:45:07;100360.47;;;32.14;38.89
33506;BME280;19843;51.040;13.782;2023-08-12T12:47:34;100361.53;;;32.50;38.52